createdAt,value
2016-07-12T00:00:30.614Z,21.15
2016-07-12T00:01:30.621Z,21.08
2016-07-12T00:02:30.626Z,21.14
2016-07-12T00:03:30.630Z,21.26
2016-07-12T00:04:30.630Z,21.22
2016-07-12T00:05:30.634Z,21.23
2016-07-12T00:06:30.645Z,21.13
2016-07-12T00:07:29.918Z,21.25
2016-07-12T00:08:30.643Z,21.28
2016-07-12T00:09:30.651Z,21.19
2016-07-12T00:10:30.646Z,21.26
2016-07-12T00:11:30.658Z,21.23
2016-07-12T00:12:30.654Z,21.28
2016-07-12T00:13:30.655Z,21.22
2016-07-12T00:14:30.659Z,21.22
2016-07-12T00:15:30.662Z,21.23
2016-07-12T00:16:30.663Z,21.23
2016-07-12T00:17:29.942Z,21.25
2016-07-12T00:18:30.672Z,21.23
2016-07-12T00:19:30.671Z,21.26
2016-07-12T00:20:30.678Z,21.23
2016-07-12T00:21:30.679Z,21.22
2016-07-12T00:22:30.679Z,21.15
2016-07-12T00:23:30.682Z,21.2
2016-07-12T00:24:30.688Z,21.1
2016-07-12T00:25:30.687Z,21.17
2016-07-12T00:26:30.691Z,21.2
2016-07-12T00:27:30.695Z,21.14
2016-07-12T00:28:30.694Z,21.22
2016-07-12T00:29:30.699Z,21.11
2016-07-12T00:30:30.703Z,21.19
2016-07-12T00:31:30.703Z,21.28
2016-07-12T00:32:30.707Z,21.19
2016-07-12T00:33:30.708Z,21.13
2016-07-12T00:34:30.723Z,21.15
2016-07-12T00:35:30.716Z,21.11
2016-07-12T00:36:30.719Z,21.05
2016-07-12T00:37:30.720Z,21.08
2016-07-12T00:38:30.724Z,21.17
2016-07-12T00:39:30.727Z,21.1
2016-07-12T00:40:30.727Z,21.05
2016-07-12T00:41:30.731Z,20.98
2016-07-12T00:42:30.735Z,20.95
2016-07-12T00:43:30.735Z,20.78
2016-07-12T00:44:30.739Z,20.75
2016-07-12T00:45:30.744Z,20.67
2016-07-12T00:46:30.743Z,20.56
2016-07-12T00:47:30.752Z,20.48
2016-07-12T00:48:30.752Z,20.5
2016-07-12T00:49:30.757Z,20.32
2016-07-12T00:50:30.755Z,20.36
2016-07-12T00:51:30.760Z,20.34
2016-07-12T00:52:30.760Z,20.42
2016-07-12T00:53:30.763Z,20.32
2016-07-12T00:54:30.772Z,20.3
2016-07-12T00:55:30.764Z,20.44
2016-07-12T00:56:30.772Z,20.33
2016-07-12T00:57:30.775Z,20.4
2016-07-12T00:58:30.775Z,20.39
2016-07-12T00:59:30.792Z,20.46
2016-07-12T01:00:30.783Z,20.42
2016-07-12T01:01:30.784Z,20.46
2016-07-12T01:02:30.788Z,20.44
2016-07-12T01:03:30.792Z,20.46
2016-07-12T01:04:30.792Z,20.44
2016-07-12T01:05:30.798Z,20.5
2016-07-12T01:06:30.800Z,20.49
2016-07-12T01:07:30.800Z,20.53
2016-07-12T01:08:30.804Z,20.55
2016-07-12T01:09:30.807Z,20.53
2016-07-12T01:10:30.809Z,20.55
2016-07-12T01:11:30.812Z,20.49
2016-07-12T01:12:30.815Z,20.48
2016-07-12T01:13:30.816Z,20.5
2016-07-12T01:14:30.832Z,20.46
2016-07-12T01:15:30.824Z,20.49
2016-07-12T01:16:30.100Z,20.49
2016-07-12T01:17:30.832Z,20.48
2016-07-12T01:18:30.832Z,20.33
2016-07-12T01:19:30.831Z,20.42
2016-07-12T01:20:31.492Z,20.4
2016-07-12T01:21:30.939Z,20.32
2016-07-12T01:22:30.120Z,20.46
2016-07-12T01:23:30.845Z,20.44
2016-07-12T01:24:30.844Z,20.46
2016-07-12T01:25:30.852Z,20.44
2016-07-12T01:26:30.853Z,20.46
2016-07-12T01:27:30.860Z,20.42
2016-07-12T01:28:30.856Z,20.46
2016-07-12T01:29:30.860Z,20.49
2016-07-12T01:30:30.865Z,20.46
2016-07-12T01:31:30.865Z,20.42
2016-07-12T01:32:30.871Z,20.42
2016-07-12T01:33:30.869Z,20.37
2016-07-12T01:34:30.872Z,20.3
2016-07-12T01:35:30.877Z,20.33
2016-07-12T01:36:30.877Z,20.3
2016-07-12T01:37:30.888Z,20.32
2016-07-12T01:38:30.884Z,20.32
2016-07-12T01:39:30.886Z,20.33
2016-07-12T01:40:30.889Z,20.33
2016-07-12T01:41:30.893Z,20.3
2016-07-12T01:42:30.902Z,20.29
2016-07-12T01:43:30.896Z,20.22
2016-07-12T01:44:30.901Z,20.29
2016-07-12T01:45:30.190Z,20.24
2016-07-12T01:46:30.918Z,20.17
2016-07-12T01:47:30.909Z,20.22
2016-07-12T01:48:30.925Z,20.24
2016-07-12T01:49:30.913Z,20.14
2016-07-12T01:50:30.912Z,20.22
2016-07-12T01:51:30.918Z,20.21
2016-07-12T01:52:30.921Z,20.21
2016-07-12T01:53:30.921Z,20.14
2016-07-12T01:54:30.926Z,20.1
2016-07-12T01:55:30.930Z,20.11
2016-07-12T01:56:30.929Z,20.14
2016-07-12T01:57:30.934Z,20.17
2016-07-12T01:58:30.938Z,20.1
2016-07-12T01:59:30.937Z,20.1
2016-07-12T02:00:30.942Z,20.15
2016-07-12T02:01:30.945Z,20.11
2016-07-12T02:02:30.946Z,20.1
2016-07-12T02:03:30.953Z,20.12
2016-07-12T02:04:30.949Z,20.02
2016-07-12T02:05:30.954Z,20.08
2016-07-12T02:06:30.958Z,20.08
2016-07-12T02:07:30.963Z,20
2016-07-12T02:08:30.962Z,19.99
2016-07-12T02:09:30.962Z,19.97
2016-07-12T02:10:30.971Z,19.93
2016-07-12T02:11:30.970Z,19.99
2016-07-12T02:12:30.974Z,19.94
2016-07-12T02:13:30.975Z,19.99
2016-07-12T02:14:30.979Z,20
2016-07-12T02:15:30.982Z,19.85
2016-07-12T02:16:30.983Z,19.9
2016-07-12T02:17:30.987Z,19.93
2016-07-12T02:18:30.990Z,19.92
2016-07-12T02:19:30.991Z,19.92
2016-07-12T02:20:30.994Z,19.89
2016-07-12T02:21:30.998Z,19.89
2016-07-12T02:22:30.998Z,19.9
2016-07-12T02:23:31.002Z,19.93
2016-07-12T02:24:31.019Z,19.93
2016-07-12T02:25:31.007Z,19.9
2016-07-12T02:26:31.011Z,19.92
2016-07-12T02:27:31.011Z,19.93
2016-07-12T02:28:31.014Z,19.94
2016-07-12T02:29:31.019Z,19.81
2016-07-12T02:30:31.019Z,19.89
2016-07-12T02:31:31.031Z,19.9
2016-07-12T02:32:31.026Z,19.84
2016-07-12T02:33:30.307Z,19.89
2016-07-12T02:34:31.031Z,19.84
2016-07-12T02:35:31.035Z,19.81
2016-07-12T02:36:31.038Z,19.81
2016-07-12T02:37:31.039Z,19.87
2016-07-12T02:38:31.038Z,19.92
2016-07-12T02:39:31.047Z,19.94
2016-07-12T02:40:31.047Z,19.84
2016-07-12T02:41:31.047Z,19.9
2016-07-12T02:42:31.054Z,19.93
2016-07-12T02:43:31.063Z,19.93
2016-07-12T02:44:31.055Z,19.93
2016-07-12T02:45:31.059Z,19.94
2016-07-12T02:46:31.063Z,19.92
2016-07-12T02:47:31.066Z,19.89
2016-07-12T02:48:31.067Z,19.96
2016-07-12T02:49:31.067Z,19.99
2016-07-12T02:50:31.071Z,19.96
2016-07-12T02:51:31.075Z,19.94
2016-07-12T02:52:31.084Z,19.9
2016-07-12T02:53:31.078Z,19.92
2016-07-12T02:54:31.083Z,19.87
2016-07-12T02:55:31.083Z,19.82
2016-07-12T02:56:31.088Z,19.87
2016-07-12T02:57:31.092Z,19.85
2016-07-12T02:58:31.092Z,19.82
2016-07-12T02:59:31.095Z,19.85
2016-07-12T03:00:31.095Z,19.87
2016-07-12T03:01:31.100Z,19.81
2016-07-12T03:02:31.104Z,19.82
2016-07-12T03:03:31.103Z,19.85
2016-07-12T03:04:31.108Z,19.79
2016-07-12T03:05:31.112Z,19.85
2016-07-12T03:06:31.112Z,19.89
2016-07-12T03:07:31.116Z,19.84
2016-07-12T03:08:31.116Z,19.9
2016-07-12T03:09:31.120Z,19.89
2016-07-12T03:10:31.120Z,19.82
2016-07-12T03:11:31.124Z,19.77
2016-07-12T03:12:31.128Z,19.89
2016-07-12T03:13:31.140Z,19.81
2016-07-12T03:14:31.132Z,19.79
2016-07-12T03:15:31.136Z,19.81
2016-07-12T03:16:31.136Z,19.79
2016-07-12T03:17:31.141Z,19.78
2016-07-12T03:18:31.144Z,19.82
2016-07-12T03:19:31.144Z,19.84
2016-07-12T03:20:30.425Z,19.78
2016-07-12T03:21:31.157Z,19.9
2016-07-12T03:22:31.152Z,19.81
2016-07-12T03:23:30.440Z,19.85
2016-07-12T03:24:31.157Z,19.82
2016-07-12T03:25:31.160Z,19.84
2016-07-12T03:26:31.165Z,19.75
2016-07-12T03:27:31.165Z,19.78
2016-07-12T03:28:31.168Z,19.82
2016-07-12T03:29:31.169Z,19.79
2016-07-12T03:30:31.185Z,19.85
2016-07-12T03:31:31.176Z,19.78
2016-07-12T03:32:31.177Z,19.77
2016-07-12T03:33:31.181Z,19.7
2016-07-12T03:34:31.185Z,19.74
2016-07-12T03:35:31.185Z,19.72
2016-07-12T03:36:31.193Z,19.74
2016-07-12T03:37:31.189Z,19.71
2016-07-12T03:38:31.201Z,19.78
2016-07-12T03:39:31.194Z,19.7
2016-07-12T03:40:31.196Z,19.71
2016-07-12T03:41:31.201Z,19.77
2016-07-12T03:42:31.201Z,19.72
2016-07-12T03:43:31.205Z,19.7
2016-07-12T03:44:31.209Z,19.71
2016-07-12T03:45:31.210Z,19.71
2016-07-12T03:46:31.213Z,19.75
2016-07-12T03:47:31.214Z,19.74
2016-07-12T03:48:31.218Z,19.74
2016-07-12T03:49:31.221Z,19.67
2016-07-12T03:50:31.221Z,19.71
2016-07-12T03:51:31.232Z,19.78
2016-07-12T03:52:31.230Z,19.81
2016-07-12T03:53:31.229Z,19.75
2016-07-12T03:54:31.242Z,19.84
2016-07-12T03:55:31.234Z,19.78
2016-07-12T03:56:31.237Z,19.79
2016-07-12T03:57:31.241Z,19.84
2016-07-12T03:58:31.242Z,19.77
2016-07-12T03:59:31.257Z,19.77
2016-07-12T04:00:31.249Z,19.78
2016-07-12T04:01:31.250Z,19.78
2016-07-12T04:02:31.254Z,19.85
2016-07-12T04:03:31.261Z,19.78
2016-07-12T04:04:30.538Z,19.84
2016-07-12T04:05:31.261Z,19.85
2016-07-12T04:06:31.261Z,19.78
2016-07-12T04:07:31.266Z,19.74
2016-07-12T04:08:31.271Z,19.66
2016-07-12T04:09:31.269Z,19.77
2016-07-12T04:10:31.274Z,19.67
2016-07-12T04:11:31.278Z,19.67
2016-07-12T04:12:31.278Z,19.67
2016-07-12T04:13:31.282Z,19.67
2016-07-12T04:14:31.282Z,19.74
2016-07-12T04:15:31.286Z,19.72
2016-07-12T04:16:31.294Z,19.7
2016-07-12T04:17:31.286Z,19.66
2016-07-12T04:18:31.294Z,19.7
2016-07-12T04:19:31.294Z,19.56
2016-07-12T04:20:31.302Z,19.7
2016-07-12T04:21:31.302Z,19.66
2016-07-12T04:22:31.306Z,19.56
2016-07-12T04:23:31.303Z,19.71
2016-07-12T04:24:31.312Z,19.59
2016-07-12T04:25:31.310Z,19.53
2016-07-12T04:26:31.314Z,19.63
2016-07-12T04:27:31.314Z,19.62
2016-07-12T04:28:31.318Z,19.57
2016-07-12T04:29:31.322Z,19.72
2016-07-12T04:30:31.322Z,19.6
2016-07-12T04:31:31.326Z,19.6
2016-07-12T04:32:31.326Z,19.7
2016-07-12T04:33:31.330Z,19.72
2016-07-12T04:34:31.331Z,19.66
2016-07-12T04:35:31.334Z,19.72
2016-07-12T04:36:31.338Z,19.81
2016-07-12T04:37:31.339Z,19.82
2016-07-12T04:38:31.342Z,19.84
2016-07-12T04:39:31.346Z,19.74
2016-07-12T04:40:31.346Z,19.77
2016-07-12T04:41:31.358Z,19.82
2016-07-12T04:42:31.350Z,19.79
2016-07-12T04:43:30.634Z,19.75
2016-07-12T04:44:31.358Z,19.77
2016-07-12T04:45:31.358Z,19.81
2016-07-12T04:46:31.362Z,19.78
2016-07-12T04:47:31.367Z,19.77
2016-07-12T04:48:31.366Z,19.72
2016-07-12T04:49:31.367Z,19.79
2016-07-12T04:50:31.375Z,19.82
2016-07-12T04:51:31.376Z,19.85
2016-07-12T04:52:31.386Z,19.72
2016-07-12T04:53:31.378Z,19.78
2016-07-12T04:54:31.391Z,19.77
2016-07-12T04:55:31.384Z,19.81
2016-07-12T04:56:30.667Z,19.77
2016-07-12T04:57:31.387Z,19.81
2016-07-12T04:58:31.392Z,19.79
2016-07-12T04:59:31.395Z,19.78
2016-07-12T05:00:31.395Z,19.79
2016-07-12T05:01:31.412Z,19.75
2016-07-12T05:02:31.400Z,19.84
2016-07-12T05:03:31.404Z,19.75
2016-07-12T05:04:30.683Z,19.71
2016-07-12T05:05:31.407Z,19.78
2016-07-12T05:06:30.686Z,19.78
2016-07-12T05:07:34.616Z,19.7
2016-07-12T05:08:31.416Z,19.77
2016-07-12T05:09:31.415Z,19.77
2016-07-12T05:10:31.420Z,19.72
2016-07-12T05:11:31.425Z,19.78
2016-07-12T05:12:31.423Z,19.78
2016-07-12T05:13:31.427Z,19.81
2016-07-12T05:14:31.427Z,19.74
2016-07-12T05:15:30.717Z,19.77
2016-07-12T05:16:31.440Z,19.79
2016-07-12T05:17:31.435Z,19.77
2016-07-12T05:18:31.444Z,19.89
2016-07-12T05:19:31.440Z,19.82
2016-07-12T05:20:31.444Z,19.92
2016-07-12T05:21:31.464Z,19.92
2016-07-12T05:22:31.449Z,20.03
2016-07-12T05:23:31.452Z,19.97
2016-07-12T05:24:31.452Z,19.97
2016-07-12T05:25:31.456Z,19.96
2016-07-12T05:26:31.461Z,19.93
2016-07-12T05:27:31.460Z,20
2016-07-12T05:28:31.465Z,20.04
2016-07-12T05:29:31.465Z,20.12
2016-07-12T05:30:31.468Z,20.15
2016-07-12T05:31:59.764Z,20.14
2016-07-12T05:32:31.479Z,20.1
2016-07-12T05:33:31.476Z,20.12
2016-07-12T05:34:31.480Z,20.12
2016-07-12T05:35:31.489Z,20.11
2016-07-12T05:36:31.484Z,20.14
2016-07-12T05:37:31.484Z,20.14
2016-07-12T05:38:31.489Z,20.08
2016-07-12T05:39:31.492Z,20.17
2016-07-12T05:40:31.594Z,20.12
2016-07-12T05:41:54.101Z,20.21
2016-07-12T05:42:31.497Z,20.19
2016-07-12T05:43:31.501Z,20.1
2016-07-12T05:44:31.505Z,20.21
2016-07-12T05:45:31.853Z,20.12
2016-07-12T05:46:31.509Z,20.21
2016-07-12T05:47:31.509Z,20.22
2016-07-12T05:48:31.521Z,20.17
2016-07-12T05:49:31.517Z,20.22
2016-07-12T05:50:31.516Z,20.29
2016-07-12T05:51:31.521Z,20.3
2016-07-12T05:52:31.521Z,20.33
2016-07-12T05:53:31.526Z,20.33
2016-07-12T05:54:31.525Z,20.37
2016-07-12T05:55:31.532Z,20.48
2016-07-12T05:56:31.533Z,20.49
2016-07-12T05:57:31.534Z,20.5
2016-07-12T05:58:31.537Z,20.48
2016-07-12T05:59:31.543Z,20.44
2016-07-12T06:00:31.541Z,20.44
2016-07-12T06:01:31.548Z,20.46
2016-07-12T06:02:31.545Z,20.52
2016-07-12T06:03:31.549Z,20.4
2016-07-12T06:04:31.548Z,20.56
2016-07-12T06:05:31.553Z,20.46
2016-07-12T06:06:31.553Z,20.49
2016-07-12T06:07:31.557Z,20.44
2016-07-12T06:08:31.565Z,20.52
2016-07-12T06:09:31.562Z,20.46
2016-07-12T06:10:31.565Z,20.53
2016-07-12T06:11:31.569Z,20.52
2016-07-12T06:12:31.569Z,20.4
2016-07-12T06:13:31.586Z,20.52
2016-07-12T06:14:31.574Z,20.48
2016-07-12T06:15:31.577Z,20.48
2016-07-12T06:16:31.577Z,20.52
2016-07-12T06:17:31.582Z,20.49
2016-07-12T06:18:31.586Z,20.53
2016-07-12T06:19:30.866Z,20.55
2016-07-12T06:20:31.590Z,20.56
2016-07-12T06:21:31.590Z,20.6
2016-07-12T06:22:31.594Z,20.59
2016-07-12T06:23:31.599Z,20.58
2016-07-12T06:24:31.598Z,20.7
2016-07-12T06:25:31.602Z,20.7
2016-07-12T06:26:31.602Z,20.67
2016-07-12T06:27:31.606Z,20.75
2016-07-12T06:28:31.617Z,20.71
2016-07-12T06:29:31.610Z,20.74
2016-07-12T06:30:31.614Z,20.77
2016-07-12T06:31:30.895Z,20.77
2016-07-12T06:32:31.618Z,20.66
2016-07-12T06:33:31.622Z,20.7
2016-07-12T06:34:31.626Z,20.67
2016-07-12T06:35:31.627Z,20.7
2016-07-12T06:36:31.631Z,20.67
2016-07-12T06:37:31.631Z,20.66
2016-07-12T06:38:31.631Z,20.71
2016-07-12T06:39:31.634Z,20.68
2016-07-12T06:40:31.639Z,20.71
2016-07-12T06:41:31.644Z,20.86
2016-07-12T06:42:31.642Z,20.88
2016-07-12T06:43:31.642Z,21
2016-07-12T06:44:31.646Z,21.1
2016-07-12T06:45:30.931Z,21.35
2016-07-12T06:46:31.659Z,21.47
2016-07-12T06:47:31.651Z,21.59
2016-07-12T06:48:31.655Z,21.7
2016-07-12T06:49:31.659Z,21.92
2016-07-12T06:50:31.660Z,21.96
2016-07-12T06:51:31.664Z,22.08
2016-07-12T06:52:31.668Z,22.14
2016-07-12T06:53:31.667Z,22.19
2016-07-12T06:54:31.671Z,22.21
2016-07-12T06:55:31.672Z,22.3
2016-07-12T06:56:31.675Z,22.31
2016-07-12T06:57:31.676Z,22.33
2016-07-12T06:58:31.680Z,22.44
2016-07-12T06:59:31.683Z,22.55
2016-07-12T07:00:31.688Z,22.55
2016-07-12T07:01:31.688Z,22.67
2016-07-12T07:02:31.691Z,22.63
2016-07-12T07:03:31.693Z,22.67
2016-07-12T07:04:31.696Z,22.65
2016-07-12T07:05:31.696Z,22.65
2016-07-12T07:06:31.700Z,22.61
2016-07-12T07:07:31.709Z,22.55
2016-07-12T07:08:31.704Z,22.55
2016-07-12T07:09:30.988Z,22.49
2016-07-12T07:10:31.712Z,22.4
2016-07-12T07:11:31.712Z,22.3
2016-07-12T07:12:31.717Z,22.31
2016-07-12T07:13:31.720Z,22.21
2016-07-12T07:14:31.721Z,22.25
2016-07-12T07:15:31.721Z,22.1
2016-07-12T07:16:31.724Z,22.19
2016-07-12T07:17:31.728Z,22.07
2016-07-12T07:18:31.729Z,22.12
2016-07-12T07:19:31.733Z,22.16
2016-07-12T07:20:31.732Z,22.19
2016-07-12T07:21:31.745Z,22.19
2016-07-12T07:22:31.736Z,22.28
2016-07-12T07:23:31.740Z,22.33
2016-07-12T07:24:31.745Z,22.38
2016-07-12T07:25:31.744Z,22.43
2016-07-12T07:26:31.749Z,22.44
2016-07-12T07:27:31.753Z,22.43
2016-07-12T07:28:31.752Z,22.43
2016-07-12T07:29:31.757Z,22.28
2016-07-12T07:30:31.765Z,22.37
2016-07-12T07:31:31.760Z,22.23
2016-07-12T07:32:31.053Z,22.31
2016-07-12T07:33:31.765Z,22.18
2016-07-12T07:34:31.773Z,22.19
2016-07-12T07:35:31.769Z,22.21
2016-07-12T07:36:31.773Z,22.19
2016-07-12T07:37:31.772Z,22.15
2016-07-12T07:38:31.781Z,22.06
2016-07-12T07:39:31.781Z,22.07
2016-07-12T07:40:31.784Z,22.08
2016-07-12T07:41:31.785Z,22.12
2016-07-12T07:42:31.785Z,22.07
2016-07-12T07:43:31.793Z,22.03
2016-07-12T07:44:31.790Z,22.19
2016-07-12T07:45:31.793Z,22.23
2016-07-12T07:46:31.797Z,22.3
2016-07-12T07:47:31.797Z,22.31
2016-07-12T07:48:31.801Z,22.33
2016-07-12T07:49:31.804Z,22.37
2016-07-12T07:50:31.805Z,22.46
2016-07-12T07:51:31.808Z,22.41
2016-07-12T07:52:31.809Z,22.56
2016-07-12T07:53:31.818Z,22.56
2016-07-12T07:54:31.813Z,22.62
2016-07-12T07:55:31.817Z,22.68
2016-07-12T07:56:31.818Z,22.65
2016-07-12T07:57:31.821Z,22.74
2016-07-12T07:58:31.826Z,22.76
2016-07-12T07:59:31.824Z,22.71
2016-07-12T08:00:31.829Z,22.71
2016-07-12T08:01:31.109Z,22.68
2016-07-12T08:02:31.833Z,22.67
2016-07-12T08:03:31.839Z,22.74
2016-07-12T08:04:31.837Z,22.77
2016-07-12T08:05:31.841Z,22.74
2016-07-12T08:06:31.841Z,22.7
2016-07-12T08:07:31.841Z,22.74
2016-07-12T08:08:31.850Z,22.73
2016-07-12T08:09:31.845Z,22.74
2016-07-12T08:10:31.849Z,22.8
2016-07-12T08:11:31.858Z,22.83
2016-07-12T08:12:31.142Z,22.84
2016-07-12T08:13:31.858Z,22.83
2016-07-12T08:14:31.861Z,22.84
2016-07-12T08:15:31.866Z,22.89
2016-07-12T08:16:31.865Z,22.92
2016-07-12T08:17:31.870Z,23.08
2016-07-12T08:18:31.870Z,23.18
2016-07-12T08:19:31.877Z,23.44
2016-07-12T08:20:31.878Z,23.55
2016-07-12T08:21:31.878Z,23.56
2016-07-12T08:22:31.881Z,23.74
2016-07-12T08:23:31.878Z,23.86
2016-07-12T08:24:31.881Z,23.85
2016-07-12T08:25:31.894Z,24
2016-07-12T08:26:31.891Z,24.09
2016-07-12T08:27:31.894Z,24.19
2016-07-12T08:28:31.894Z,24.34
2016-07-12T08:29:31.898Z,24.58
2016-07-12T08:30:31.902Z,24.56
2016-07-12T08:32:31.911Z,24.71
2016-07-12T08:33:31.911Z,24.77
2016-07-12T08:34:31.919Z,24.75
2016-07-12T08:35:31.914Z,24.75
2016-07-12T08:36:31.914Z,24.78
2016-07-12T08:37:31.918Z,24.77
2016-07-12T08:38:31.919Z,24.71
2016-07-12T08:39:31.202Z,24.77
2016-07-12T08:40:31.926Z,24.77
2016-07-12T08:41:31.926Z,24.85
2016-07-12T08:42:31.930Z,24.94
2016-07-12T08:43:31.930Z,24.96
2016-07-12T08:44:31.934Z,25.09
2016-07-12T08:45:31.938Z,25.18
2016-07-12T08:46:31.939Z,25.34
2016-07-12T08:47:31.308Z,25.74
2016-07-12T08:48:31.991Z,26.13
2016-07-12T08:49:31.974Z,26.46
2016-07-12T08:50:31.994Z,26.74
2016-07-12T08:51:31.265Z,27.15
2016-07-12T08:52:31.962Z,27.44
2016-07-12T08:53:31.966Z,27.66
2016-07-12T08:54:31.958Z,27.83
2016-07-12T08:55:31.971Z,27.93
2016-07-12T08:56:31.990Z,28.08
2016-07-12T08:57:31.258Z,28.19
2016-07-12T08:58:31.978Z,28.4
2016-07-12T08:59:31.972Z,28.59
2016-07-12T09:00:31.979Z,28.72
2016-07-12T09:01:32.074Z,29.05
2016-07-12T09:02:31.979Z,29.4
2016-07-12T09:03:31.982Z,29.87
2016-07-12T09:04:31.982Z,30.05
2016-07-12T09:05:31.987Z,30.21
2016-07-12T09:06:31.986Z,30.23
2016-07-12T09:07:31.990Z,30.02
2016-07-12T09:08:31.999Z,29.92
2016-07-12T09:09:31.994Z,29.5
2016-07-12T09:10:31.998Z,29.3
2016-07-12T09:11:52.755Z,28.75
2016-07-12T09:12:32.003Z,28.6
2016-07-12T09:13:32.006Z,28.27
2016-07-12T09:14:32.020Z,27.91
2016-07-12T09:15:32.011Z,27.68
2016-07-12T09:16:32.015Z,27.25
2016-07-12T09:17:32.015Z,26.89
2016-07-12T09:18:32.019Z,26.66
2016-07-12T09:19:32.019Z,26.33
2016-07-12T09:20:32.023Z,26.06
2016-07-12T09:21:32.031Z,25.98
2016-07-12T09:22:32.031Z,25.8
2016-07-12T09:23:31.315Z,25.77
2016-07-12T09:24:32.036Z,25.67
2016-07-12T09:25:32.039Z,25.7
2016-07-12T09:26:32.039Z,25.74
2016-07-12T09:27:32.039Z,25.66
2016-07-12T09:28:32.043Z,25.66
2016-07-12T09:29:32.062Z,25.74
2016-07-12T09:30:32.048Z,25.76
2016-07-12T09:31:32.051Z,25.89
2016-07-12T09:32:32.055Z,25.86
2016-07-12T09:33:32.059Z,25.81
2016-07-12T09:34:32.059Z,25.76
2016-07-12T09:35:32.064Z,25.85
2016-07-12T09:36:32.063Z,25.8
2016-07-12T09:37:32.068Z,25.83
2016-07-12T09:38:32.072Z,25.77
2016-07-12T09:39:32.075Z,25.76
2016-07-12T09:40:32.076Z,25.73
2016-07-12T09:41:32.076Z,25.74
2016-07-12T09:42:32.079Z,25.58
2016-07-12T09:43:32.084Z,25.63
2016-07-12T09:44:32.084Z,25.62
2016-07-12T09:45:32.088Z,25.52
2016-07-12T09:46:32.092Z,25.56
2016-07-12T09:47:32.091Z,25.59
2016-07-12T09:48:32.092Z,25.56
2016-07-12T09:49:32.104Z,25.51
2016-07-12T09:50:32.100Z,25.49
2016-07-12T09:51:32.108Z,25.39
2016-07-12T09:52:32.117Z,25.33
2016-07-12T09:53:32.108Z,25.3
2016-07-12T09:54:30.671Z,25.14
2016-07-12T09:55:32.112Z,25.11
2016-07-12T09:56:31.396Z,24.94
2016-07-12T09:57:32.120Z,24.94
2016-07-12T09:58:32.120Z,24.92
2016-07-12T09:59:32.128Z,24.78
2016-07-12T10:00:32.124Z,24.84
2016-07-12T10:01:32.128Z,24.77
2016-07-12T10:02:31.416Z,24.62
2016-07-12T10:03:31.432Z,24.53
2016-07-12T10:04:32.132Z,24.56
2016-07-12T10:05:32.140Z,24.51
2016-07-12T10:06:32.140Z,24.5
2016-07-12T10:07:32.145Z,24.37
2016-07-12T10:08:32.149Z,24.37
2016-07-12T10:09:32.147Z,24.22
2016-07-12T10:10:31.433Z,24.32
2016-07-12T10:11:32.153Z,24.24
2016-07-12T10:12:32.156Z,24.24
2016-07-12T10:13:32.196Z,24.14
2016-07-12T10:14:31.441Z,24.11
2016-07-12T10:15:32.165Z,23.92
2016-07-12T10:16:32.172Z,24.03
2016-07-12T10:17:32.168Z,23.91
2016-07-12T10:18:32.173Z,23.92
2016-07-12T10:19:32.177Z,23.82
2016-07-12T10:20:32.184Z,23.81
2016-07-12T10:21:31.461Z,23.74
2016-07-12T10:22:32.185Z,23.74
2016-07-12T10:23:32.189Z,23.7
2016-07-12T10:24:32.189Z,23.63
2016-07-12T10:25:32.194Z,23.67
2016-07-12T10:26:32.201Z,23.56
2016-07-12T10:27:32.197Z,23.58
2016-07-12T10:28:32.282Z,23.36
2016-07-12T10:29:31.481Z,23.39
2016-07-12T10:31:32.210Z,23.26
2016-07-12T10:32:32.209Z,23.32
2016-07-12T10:33:32.213Z,23.28
2016-07-12T10:35:08.381Z,23.2
2016-07-12T10:35:32.217Z,23.2
2016-07-12T10:36:32.221Z,23.23
2016-07-12T10:37:46.381Z,23.16
2016-07-12T10:38:32.226Z,23.08
2016-07-12T10:39:32.330Z,23.07
2016-07-12T10:40:52.034Z,23.01
2016-07-12T10:41:31.913Z,23.02
2016-07-12T10:42:32.237Z,22.89
2016-07-12T10:43:56.897Z,22.76
2016-07-12T10:44:32.250Z,22.77
2016-07-12T10:45:32.247Z,22.65
2016-07-12T10:47:00.694Z,22.51
2016-07-12T10:47:30.805Z,22.49
2016-07-12T10:48:32.726Z,22.3
2016-07-12T10:49:32.254Z,22.19
2016-07-12T10:50:32.258Z,22.06
2016-07-12T10:51:31.543Z,21.99
2016-07-12T10:52:32.266Z,21.91
2016-07-12T10:53:40.325Z,21.91
2016-07-12T10:54:31.546Z,21.94
2016-07-12T10:55:32.271Z,21.77
2016-07-12T10:57:00.567Z,21.7
2016-07-12T10:57:31.603Z,21.65
2016-07-12T10:58:32.279Z,21.69
2016-07-12T10:59:32.283Z,21.6
2016-07-12T11:00:32.283Z,21.59
2016-07-12T11:01:32.286Z,21.63
2016-07-12T11:02:32.287Z,21.62
2016-07-12T11:04:31.734Z,21.6
2016-07-12T11:05:32.294Z,21.63
2016-07-12T11:07:31.583Z,21.74
2016-07-12T11:08:32.303Z,21.69
2016-07-12T11:09:32.306Z,21.62
2016-07-12T11:10:32.554Z,21.62
2016-07-12T11:11:32.319Z,21.62
2016-07-12T11:12:32.314Z,21.72
2016-07-12T11:13:35.871Z,21.7
2016-07-12T11:14:32.319Z,21.78
2016-07-12T11:15:32.323Z,21.77
2016-07-12T11:16:46.139Z,21.83
2016-07-12T11:17:32.335Z,21.78
2016-07-12T11:18:32.339Z,21.8
2016-07-12T11:19:56.439Z,21.84
2016-07-12T11:20:32.331Z,21.81
2016-07-12T11:21:32.335Z,21.81
2016-07-12T11:23:32.340Z,21.92
2016-07-12T11:24:32.344Z,21.83
2016-07-12T11:25:32.347Z,21.91
2016-07-12T11:26:32.353Z,21.89
2016-07-12T11:27:32.351Z,21.84
2016-07-12T11:28:32.355Z,21.99
2016-07-12T11:29:40.911Z,22.01
2016-07-12T11:30:32.359Z,22.01
2016-07-12T11:31:32.360Z,22.06
2016-07-12T11:32:53.867Z,22.04
2016-07-12T11:33:32.367Z,22.03
2016-07-12T11:34:32.367Z,22.06
2016-07-12T11:35:58.580Z,22.15
2016-07-12T11:36:32.387Z,22.12
2016-07-12T11:37:32.376Z,22.19
2016-07-12T11:38:32.383Z,22.25
2016-07-12T11:39:32.380Z,22.19
2016-07-12T11:40:32.388Z,22.36
2016-07-12T11:41:32.388Z,22.26
2016-07-12T11:42:46.836Z,22.25
2016-07-12T11:43:32.392Z,22.23
2016-07-12T11:44:32.391Z,22.28
2016-07-12T11:46:00.687Z,22.31
2016-07-12T11:46:32.399Z,22.3
2016-07-12T11:47:32.400Z,22.37
2016-07-12T11:49:02.200Z,22.26
2016-07-12T11:49:32.400Z,22.31
2016-07-12T11:50:32.408Z,22.25
2016-07-12T11:52:32.412Z,22.34
2016-07-12T11:53:32.416Z,22.28
2016-07-12T11:54:32.420Z,22.33
2016-07-12T11:55:32.424Z,22.21
2016-07-12T11:56:32.423Z,22.22
2016-07-12T11:57:32.428Z,22.19
2016-07-12T11:59:32.433Z,22.22
2016-07-12T12:00:32.433Z,22.18
2016-07-12T12:01:32.444Z,22.18
2016-07-12T12:02:32.745Z,22.07
2016-07-12T12:03:32.437Z,22.15
2016-07-12T12:04:32.444Z,22.12
2016-07-12T12:05:35.900Z,22.07
2016-07-12T12:06:32.448Z,22.12
2016-07-12T12:07:32.448Z,22.06
2016-07-12T12:08:47.601Z,22.04
2016-07-12T12:09:32.457Z,22.08
2016-07-12T12:10:32.460Z,21.96
2016-07-12T12:12:32.465Z,21.84
2016-07-12T12:13:32.460Z,21.91
2016-07-12T12:14:32.464Z,21.88
2016-07-12T12:15:32.472Z,21.92
2016-07-12T12:16:32.473Z,21.84
2016-07-12T12:17:32.477Z,21.89
2016-07-12T12:18:36.681Z,21.92
2016-07-12T12:19:32.481Z,21.84
2016-07-12T12:20:32.501Z,21.91
2016-07-12T12:21:52.489Z,21.78
2016-07-12T12:22:32.489Z,21.8
2016-07-12T12:23:32.489Z,21.78
2016-07-12T12:24:32.493Z,21.81
2016-07-12T12:25:32.493Z,21.69
2016-07-12T12:26:31.777Z,21.6
2016-07-12T12:27:32.501Z,21.66
2016-07-12T12:28:35.558Z,21.65
2016-07-12T12:29:32.505Z,21.65
2016-07-12T12:30:32.510Z,21.62
2016-07-12T12:31:50.065Z,21.74
2016-07-12T12:32:32.513Z,21.72
2016-07-12T12:33:32.521Z,21.78
2016-07-12T12:35:32.517Z,22.03
2016-07-12T12:36:32.521Z,22.16
2016-07-12T12:37:32.525Z,22.28
2016-07-12T12:38:32.537Z,22.33
2016-07-12T12:39:32.529Z,22.44
2016-07-12T12:40:32.528Z,22.49
2016-07-12T12:41:46.681Z,22.65
2016-07-12T12:42:32.541Z,22.67
2016-07-12T12:43:32.537Z,22.73
2016-07-12T12:44:39.097Z,22.8
2016-07-12T12:45:32.545Z,22.76
2016-07-12T12:46:32.545Z,22.77
2016-07-12T12:47:41.710Z,22.88
2016-07-12T12:48:32.549Z,22.83
2016-07-12T12:49:32.554Z,22.98
2016-07-12T12:50:32.858Z,22.99
2016-07-12T12:51:32.558Z,22.98
2016-07-12T12:52:32.561Z,22.99
2016-07-12T12:53:38.922Z,22.91
2016-07-12T12:54:32.880Z,22.84
2016-07-12T12:55:32.566Z,22.86
2016-07-12T12:56:44.182Z,22.83
2016-07-12T12:57:32.578Z,22.81
2016-07-12T12:58:32.574Z,22.88
2016-07-12T12:59:53.383Z,22.71
2016-07-12T13:00:32.630Z,22.71
2016-07-12T13:01:32.582Z,22.61
2016-07-12T13:03:01.579Z,22.53
2016-07-12T13:03:31.867Z,22.49
2016-07-12T13:04:32.590Z,22.52